sensor_id;sensor_type;location;lat;lon;timestamp;noise_LAeq;noise_LA_min;noise_LA_max;noise_LA01;noise_LA95
66888;Laerm;53798;51.680;5.976;2022-11-20T00:01:31;66.81;31.09;83.13;;
66888;Laerm;53798;51.680;5.976;2022-11-20T00:03:59;63.66;34.81;79.69;;
66888;Laerm;53798;51.680;5.976;2022-11-20T00:06:28;57.74;32.59;75.62;;
66888;Laerm;53798;51.680;5.976;2022-11-20T00:08:59;62.79;32.63;77.27;;
66888;Laerm;53798;51.680;5.976;2022-11-20T00:11:29;64.93;32.20;80.92;;
66888;Laerm;53798;51.680;5.976;2022-11-20T00:14:00;37.64;32.32;55.81;;
66888;Laerm;53798;51.680;5.976;2022-11-20T00:16:31;39.18;32.54;62.82;;
66888;Laerm;53798;51.680;5.976;2022-11-20T00:19:00;66.34;34.20;86.12;;
66888;Laerm;53798;51.680;5.976;2022-11-20T00:21:28;37.19;31.12;43.53;;
66888;Laerm;53798;51.680;5.976;2022-11-20T00:23:57;37.26;31.80;45.30;;
66888;Laerm;53798;51.680;5.976;2022-11-20T00:26:26;39.25;32.29;46.48;;
66888;Laerm;53798;51.680;5.976;2022-11-20T00:28:57;34.41;31.05;39.64;;
66888;Laerm;53798;51.680;5.976;2022-11-20T00:31:26;61.93;32.99;78.45;;
66888;Laerm;53798;51.680;5.976;2022-11-20T00:33:54;48.45;32.64;68.68;;
66888;Laerm;53798;51.680;5.976;2022-11-20T00:36:26;62.72;32.48;82.44;;
66888;Laerm;53798;51.680;5.976;2022-11-20T00:38:58;59.92;33.10;78.19;;
66888;Laerm;53798;51.680;5.976;2022-11-20T00:41:29;54.98;32.90;73.64;;
66888;Laerm;53798;51.680;5.976;2022-11-20T00:43:57;36.44;31.37;43.74;;
66888;Laerm;53798;51.680;5.976;2022-11-20T00:46:27;38.03;32.44;48.13;;
66888;Laerm;53798;51.680;5.976;2022-11-20T00:48:54;59.08;30.82;80.00;;
66888;Laerm;53798;51.680;5.976;2022-11-20T00:51:25;58.10;31.49;77.92;;
66888;Laerm;53798;51.680;5.976;2022-11-20T00:53:57;46.66;31.53;66.22;;
66888;Laerm;53798;51.680;5.976;2022-11-20T00:56:26;59.95;32.11;78.61;;
66888;Laerm;53798;51.680;5.976;2022-11-20T00:58:53;39.70;31.28;61.50;;
66888;Laerm;53798;51.680;5.976;2022-11-20T01:01:25;34.61;31.14;40.74;;
66888;Laerm;53798;51.680;5.976;2022-11-20T01:03:56;35.77;31.38;48.58;;
66888;Laerm;53798;51.680;5.976;2022-11-20T01:06:27;56.97;31.24;75.74;;
66888;Laerm;53798;51.680;5.976;2022-11-20T01:08:58;65.11;30.83;81.85;;
66888;Laerm;53798;51.680;5.976;2022-11-20T01:11:32;61.10;32.98;78.84;;
66888;Laerm;53798;51.680;5.976;2022-11-20T01:14:01;35.26;31.02;43.78;;
66888;Laerm;53798;51.680;5.976;2022-11-20T01:16:36;34.90;31.14;41.84;;
66888;Laerm;53798;51.680;5.976;2022-11-20T01:19:08;34.25;30.37;47.41;;
66888;Laerm;53798;51.680;5.976;2022-11-20T01:21:39;33.07;30.32;37.98;;
66888;Laerm;53798;51.680;5.976;2022-11-20T01:24:11;33.94;30.98;38.19;;
66888;Laerm;53798;51.680;5.976;2022-11-20T01:26:43;59.45;31.33;79.73;;
66888;Laerm;53798;51.680;5.976;2022-11-20T01:29:21;36.58;31.73;43.54;;
66888;Laerm;53798;51.680;5.976;2022-11-20T01:31:49;59.15;33.34;77.81;;
66888;Laerm;53798;51.680;5.976;2022-11-20T01:34:19;57.81;30.51;75.82;;
66888;Laerm;53798;51.680;5.976;2022-11-20T01:36:49;39.63;31.75;51.12;;
66888;Laerm;53798;51.680;5.976;2022-11-20T01:39:20;34.50;30.17;40.14;;
66888;Laerm;53798;51.680;5.976;2022-11-20T01:41:51;60.70;30.94;80.20;;
66888;Laerm;53798;51.680;5.976;2022-11-20T01:44:56;60.21;31.26;79.79;;
66888;Laerm;53798;51.680;5.976;2022-11-20T01:47:45;55.47;29.95;73.21;;
66888;Laerm;53798;51.680;5.976;2022-11-20T01:50:20;59.07;31.23;76.17;;
66888;Laerm;53798;51.680;5.976;2022-11-20T01:53:05;33.72;30.32;45.37;;
66888;Laerm;53798;51.680;5.976;2022-11-20T01:55:46;61.81;30.65;79.18;;
66888;Laerm;53798;51.680;5.976;2022-11-20T01:58:16;32.46;29.77;46.08;;
66888;Laerm;53798;51.680;5.976;2022-11-20T02:00:48;38.49;29.75;60.39;;
66888;Laerm;53798;51.680;5.976;2022-11-20T02:03:18;36.02;30.79;47.59;;
66888;Laerm;53798;51.680;5.976;2022-11-20T02:06:04;35.85;31.18;48.87;;
66888;Laerm;53798;51.680;5.976;2022-11-20T02:08:33;58.80;30.89;75.96;;
66888;Laerm;53798;51.680;5.976;2022-11-20T02:11:00;64.83;32.65;85.25;;
66888;Laerm;53798;51.680;5.976;2022-11-20T02:13:28;60.35;30.46;79.30;;
66888;Laerm;53798;51.680;5.976;2022-11-20T02:16:25;67.19;30.25;85.76;;
66888;Laerm;53798;51.680;5.976;2022-11-20T02:18:54;34.05;30.35;48.53;;
66888;Laerm;53798;51.680;5.976;2022-11-20T02:21:50;34.42;30.40;41.88;;
66888;Laerm;53798;51.680;5.976;2022-11-20T02:24:22;65.26;29.91;83.52;;
66888;Laerm;53798;51.680;5.976;2022-11-20T02:26:59;35.62;30.91;45.08;;
66888;Laerm;53798;51.680;5.976;2022-11-20T02:29:36;37.21;30.94;47.97;;
66888;Laerm;53798;51.680;5.976;2022-11-20T02:32:04;56.91;30.96;78.19;;
66888;Laerm;53798;51.680;5.976;2022-11-20T02:34:31;59.67;30.59;77.52;;
66888;Laerm;53798;51.680;5.976;2022-11-20T02:36:59;43.37;30.23;67.85;;
66888;Laerm;53798;51.680;5.976;2022-11-20T02:39:28;36.80;30.39;52.20;;
66888;Laerm;53798;51.680;5.976;2022-11-20T02:41:56;32.16;29.58;40.84;;
66888;Laerm;53798;51.680;5.976;2022-11-20T02:44:23;33.22;29.33;41.97;;
66888;Laerm;53798;51.680;5.976;2022-11-20T02:46:50;35.76;29.86;44.57;;
66888;Laerm;53798;51.680;5.976;2022-11-20T02:49:18;35.36;30.62;44.52;;
66888;Laerm;53798;51.680;5.976;2022-11-20T02:51:45;58.31;30.31;78.01;;
66888;Laerm;53798;51.680;5.976;2022-11-20T02:54:13;33.37;29.39;50.93;;
66888;Laerm;53798;51.680;5.976;2022-11-20T02:56:40;33.94;29.56;42.97;;
66888;Laerm;53798;51.680;5.976;2022-11-20T02:59:07;61.91;29.51;81.30;;
66888;Laerm;53798;51.680;5.976;2022-11-20T03:01:34;37.42;29.76;48.71;;
66888;Laerm;53798;51.680;5.976;2022-11-20T03:04:02;33.46;29.02;45.95;;
66888;Laerm;53798;51.680;5.976;2022-11-20T03:06:29;34.66;31.34;43.32;;
66888;Laerm;53798;51.680;5.976;2022-11-20T03:08:57;33.20;29.94;43.83;;
66888;Laerm;53798;51.680;5.976;2022-11-20T03:11:25;34.40;30.13;50.81;;
66888;Laerm;53798;51.680;5.976;2022-11-20T03:13:52;33.79;29.61;53.36;;
66888;Laerm;53798;51.680;5.976;2022-11-20T03:16:22;37.60;30.02;55.39;;
66888;Laerm;53798;51.680;5.976;2022-11-20T03:18:52;33.46;29.85;49.94;;
66888;Laerm;53798;51.680;5.976;2022-11-20T03:21:19;32.83;29.85;40.23;;
66888;Laerm;53798;51.680;5.976;2022-11-20T03:23:47;61.01;30.50;82.10;;
66888;Laerm;53798;51.680;5.976;2022-11-20T03:26:18;57.36;31.08;78.15;;
66888;Laerm;53798;51.680;5.976;2022-11-20T03:28:51;57.13;31.36;79.55;;
66888;Laerm;53798;51.680;5.976;2022-11-20T03:31:22;34.37;31.35;44.61;;
66888;Laerm;53798;51.680;5.976;2022-11-20T03:33:59;34.85;32.64;37.84;;
66888;Laerm;53798;51.680;5.976;2022-11-20T03:36:27;34.98;32.34;40.66;;
66888;Laerm;53798;51.680;5.976;2022-11-20T03:38:56;34.23;31.92;38.69;;
66888;Laerm;53798;51.680;5.976;2022-11-20T03:41:29;37.25;31.77;58.59;;
66888;Laerm;53798;51.680;5.976;2022-11-20T03:44:02;59.50;32.77;77.93;;
66888;Laerm;53798;51.680;5.976;2022-11-20T03:46:30;36.11;33.29;43.16;;
66888;Laerm;53798;51.680;5.976;2022-11-20T03:48:57;35.04;31.87;39.71;;
66888;Laerm;53798;51.680;5.976;2022-11-20T03:51:31;33.73;31.06;38.38;;
66888;Laerm;53798;51.680;5.976;2022-11-20T03:54:03;34.19;31.13;44.19;;
66888;Laerm;53798;51.680;5.976;2022-11-20T03:56:33;34.77;31.18;41.78;;
66888;Laerm;53798;51.680;5.976;2022-11-20T03:59:01;56.30;32.77;74.32;;
66888;Laerm;53798;51.680;5.976;2022-11-20T04:01:35;34.85;31.86;43.11;;
66888;Laerm;53798;51.680;5.976;2022-11-20T04:04:04;35.58;32.05;40.76;;
66888;Laerm;53798;51.680;5.976;2022-11-20T04:06:37;35.68;33.02;38.79;;
66888;Laerm;53798;51.680;5.976;2022-11-20T04:09:05;55.54;33.75;74.54;;
66888;Laerm;53798;51.680;5.976;2022-11-20T04:11:35;63.23;33.97;79.94;;
66888;Laerm;53798;51.680;5.976;2022-11-20T04:14:06;59.03;31.52;77.37;;
66888;Laerm;53798;51.680;5.976;2022-11-20T04:16:35;34.91;31.28;42.47;;
66888;Laerm;53798;51.680;5.976;2022-11-20T04:19:06;63.08;30.76;82.65;;
66888;Laerm;53798;51.680;5.976;2022-11-20T04:21:35;60.52;32.73;76.78;;
66888;Laerm;53798;51.680;5.976;2022-11-20T04:24:03;66.66;32.67;79.48;;
66888;Laerm;53798;51.680;5.976;2022-11-20T04:26:30;35.35;31.67;45.71;;
66888;Laerm;53798;51.680;5.976;2022-11-20T04:28:58;45.22;31.03;64.17;;
66888;Laerm;53798;51.680;5.976;2022-11-20T04:31:29;65.48;34.28;79.39;;
66888;Laerm;53798;51.680;5.976;2022-11-20T04:34:03;39.81;32.05;56.27;;
66888;Laerm;53798;51.680;5.976;2022-11-20T04:36:32;36.97;32.62;53.36;;
66888;Laerm;53798;51.680;5.976;2022-11-20T04:39:04;36.87;31.77;49.88;;
66888;Laerm;53798;51.680;5.976;2022-11-20T04:41:35;64.94;35.19;81.36;;
66888;Laerm;53798;51.680;5.976;2022-11-20T04:44:05;61.01;32.20;79.76;;
66888;Laerm;53798;51.680;5.976;2022-11-20T04:46:41;63.56;33.24;77.55;;
66888;Laerm;53798;51.680;5.976;2022-11-20T04:49:11;64.00;35.04;77.23;;
66888;Laerm;53798;51.680;5.976;2022-11-20T04:51:39;62.88;31.20;76.81;;
66888;Laerm;53798;51.680;5.976;2022-11-20T04:54:06;36.36;32.27;50.90;;
66888;Laerm;53798;51.680;5.976;2022-11-20T04:56:33;58.07;31.26;75.78;;
66888;Laerm;53798;51.680;5.976;2022-11-20T04:59:02;56.37;31.11;75.36;;
66888;Laerm;53798;51.680;5.976;2022-11-20T05:01:31;63.97;33.06;82.42;;
66888;Laerm;53798;51.680;5.976;2022-11-20T05:03:59;67.60;33.44;84.20;;
66888;Laerm;53798;51.680;5.976;2022-11-20T05:06:26;62.85;32.66;82.71;;
66888;Laerm;53798;51.680;5.976;2022-11-20T05:08:53;67.41;33.29;86.38;;
66888;Laerm;53798;51.680;5.976;2022-11-20T05:11:21;66.51;34.36;82.70;;
66888;Laerm;53798;51.680;5.976;2022-11-20T05:13:50;65.66;34.63;82.40;;
66888;Laerm;53798;51.680;5.976;2022-11-20T05:16:22;61.85;33.52;80.35;;
66888;Laerm;53798;51.680;5.976;2022-11-20T05:18:52;37.33;32.77;47.35;;
66888;Laerm;53798;51.680;5.976;2022-11-20T05:21:21;54.73;33.63;76.10;;
66888;Laerm;53798;51.680;5.976;2022-11-20T05:23:48;37.65;33.40;46.17;;
66888;Laerm;53798;51.680;5.976;2022-11-20T05:26:19;36.19;32.81;55.60;;
66888;Laerm;53798;51.680;5.976;2022-11-20T05:28:50;59.75;34.12;75.68;;
66888;Laerm;53798;51.680;5.976;2022-11-20T05:31:21;36.72;32.73;50.59;;
66888;Laerm;53798;51.680;5.976;2022-11-20T05:33:56;61.84;33.57;79.97;;
66888;Laerm;53798;51.680;5.976;2022-11-20T05:36:24;41.19;34.34;67.31;;
66888;Laerm;53798;51.680;5.976;2022-11-20T05:38:52;40.10;35.32;55.43;;
66888;Laerm;53798;51.680;5.976;2022-11-20T05:41:25;63.56;34.49;84.31;;
66888;Laerm;53798;51.680;5.976;2022-11-20T05:43:52;41.21;35.91;57.98;;
66888;Laerm;53798;51.680;5.976;2022-11-20T05:46:21;45.65;36.94;59.17;;
66888;Laerm;53798;51.680;5.976;2022-11-20T05:48:55;41.87;33.55;66.51;;
66888;Laerm;53798;51.680;5.976;2022-11-20T05:51:26;59.79;34.72;76.12;;
66888;Laerm;53798;51.680;5.976;2022-11-20T05:53:56;40.76;34.21;61.46;;
66888;Laerm;53798;51.680;5.976;2022-11-20T05:56:24;41.40;33.90;60.38;;
66888;Laerm;53798;51.680;5.976;2022-11-20T05:58:51;59.44;34.60;78.67;;
66888;Laerm;53798;51.680;5.976;2022-11-20T06:01:24;39.45;33.99;57.02;;
66888;Laerm;53798;51.680;5.976;2022-11-20T06:03:53;41.80;34.48;58.34;;
66888;Laerm;53798;51.680;5.976;2022-11-20T06:06:21;38.26;34.60;48.81;;
66888;Laerm;53798;51.680;5.976;2022-11-20T06:08:49;64.68;35.17;80.36;;
66888;Laerm;53798;51.680;5.976;2022-11-20T06:11:17;40.12;34.09;53.61;;
66888;Laerm;53798;51.680;5.976;2022-11-20T06:13:45;38.85;34.70;49.05;;
66888;Laerm;53798;51.680;5.976;2022-11-20T06:16:15;37.58;33.78;53.66;;
66888;Laerm;53798;51.680;5.976;2022-11-20T06:18:45;55.04;34.12;72.03;;
66888;Laerm;53798;51.680;5.976;2022-11-20T06:21:16;39.32;35.18;53.37;;
66888;Laerm;53798;51.680;5.976;2022-11-20T06:23:44;40.27;34.09;59.54;;
66888;Laerm;53798;51.680;5.976;2022-11-20T06:26:18;40.26;35.91;53.28;;
66888;Laerm;53798;51.680;5.976;2022-11-20T06:28:46;61.33;34.13;79.99;;
66888;Laerm;53798;51.680;5.976;2022-11-20T06:31:16;59.91;35.42;75.42;;
66888;Laerm;53798;51.680;5.976;2022-11-20T06:33:44;65.78;34.83;82.58;;
66888;Laerm;53798;51.680;5.976;2022-11-20T06:36:14;62.72;35.18;80.81;;
66888;Laerm;53798;51.680;5.976;2022-11-20T06:38:42;42.18;34.40;57.53;;
66888;Laerm;53798;51.680;5.976;2022-11-20T06:41:17;40.62;35.24;53.18;;
66888;Laerm;53798;51.680;5.976;2022-11-20T06:43:45;60.27;36.42;79.81;;
66888;Laerm;53798;51.680;5.976;2022-11-20T06:46:15;62.12;36.68;78.25;;
66888;Laerm;53798;51.680;5.976;2022-11-20T06:48:50;42.55;37.09;56.42;;
66888;Laerm;53798;51.680;5.976;2022-11-20T06:51:18;59.88;37.16;79.54;;
66888;Laerm;53798;51.680;5.976;2022-11-20T06:53:45;59.52;36.20;79.76;;
66888;Laerm;53798;51.680;5.976;2022-11-20T06:56:12;63.52;36.30;83.89;;
66888;Laerm;53798;51.680;5.976;2022-11-20T06:58:40;40.76;35.96;51.35;;
66888;Laerm;53798;51.680;5.976;2022-11-20T07:01:10;64.33;35.93;83.40;;
66888;Laerm;53798;51.680;5.976;2022-11-20T07:03:40;63.70;37.04;78.76;;
66888;Laerm;53798;51.680;5.976;2022-11-20T07:06:08;38.64;34.82;49.57;;
66888;Laerm;53798;51.680;5.976;2022-11-20T07:08:35;58.61;34.24;77.20;;
66888;Laerm;53798;51.680;5.976;2022-11-20T07:11:06;59.77;34.92;78.83;;
66888;Laerm;53798;51.680;5.976;2022-11-20T07:13:34;39.45;34.02;49.63;;
66888;Laerm;53798;51.680;5.976;2022-11-20T07:16:05;59.88;33.64;79.32;;
66888;Laerm;53798;51.680;5.976;2022-11-20T07:18:33;58.37;33.84;76.70;;
66888;Laerm;53798;51.680;5.976;2022-11-20T07:21:03;58.59;34.72;75.11;;
66888;Laerm;53798;51.680;5.976;2022-11-20T07:23:31;58.07;34.08;75.65;;
66888;Laerm;53798;51.680;5.976;2022-11-20T07:26:06;44.28;34.75;62.46;;
66888;Laerm;53798;51.680;5.976;2022-11-20T07:28:35;60.09;38.76;76.54;;
66888;Laerm;53798;51.680;5.976;2022-11-20T07:31:02;64.35;34.65;82.05;;
66888;Laerm;53798;51.680;5.976;2022-11-20T07:33:30;57.72;35.11;77.16;;
66888;Laerm;53798;51.680;5.976;2022-11-20T07:36:01;65.34;35.35;78.27;;
66888;Laerm;53798;51.680;5.976;2022-11-20T07:38:29;64.48;34.89;81.84;;
66888;Laerm;53798;51.680;5.976;2022-11-20T07:40:57;65.75;33.58;85.79;;
66888;Laerm;53798;51.680;5.976;2022-11-20T07:43:24;60.19;35.23;76.02;;
66888;Laerm;53798;51.680;5.976;2022-11-20T07:45:55;42.17;33.81;60.24;;
66888;Laerm;53798;51.680;5.976;2022-11-20T07:48:23;61.02;34.82;81.10;;
66888;Laerm;53798;51.680;5.976;2022-11-20T07:50:55;60.10;35.26;79.48;;
66888;Laerm;53798;51.680;5.976;2022-11-20T07:53:23;66.17;34.17;81.53;;
66888;Laerm;53798;51.680;5.976;2022-11-20T07:55:50;57.05;33.31;74.56;;
66888;Laerm;53798;51.680;5.976;2022-11-20T07:58:21;57.94;34.94;77.56;;
66888;Laerm;53798;51.680;5.976;2022-11-20T08:00:48;62.98;35.35;79.64;;
66888;Laerm;53798;51.680;5.976;2022-11-20T08:03:16;66.38;38.15;85.27;;
66888;Laerm;53798;51.680;5.976;2022-11-20T08:05:51;60.36;34.57;79.80;;
66888;Laerm;53798;51.680;5.976;2022-11-20T08:08:18;61.64;37.02;82.03;;
66888;Laerm;53798;51.680;5.976;2022-11-20T08:10:45;67.57;34.57;84.91;;
66888;Laerm;53798;51.680;5.976;2022-11-20T08:13:12;65.04;36.10;80.21;;
66888;Laerm;53798;51.680;5.976;2022-11-20T08:15:58;59.97;35.97;74.03;;
66888;Laerm;53798;51.680;5.976;2022-11-20T08:18:26;68.69;34.56;83.47;;
66888;Laerm;53798;51.680;5.976;2022-11-20T08:21:03;64.69;35.27;79.56;;
66888;Laerm;53798;51.680;5.976;2022-11-20T08:23:31;65.69;36.31;82.13;;
66888;Laerm;53798;51.680;5.976;2022-11-20T08:25:58;61.61;34.01;81.08;;
66888;Laerm;53798;51.680;5.976;2022-11-20T08:28:26;64.62;34.17;81.84;;
66888;Laerm;53798;51.680;5.976;2022-11-20T08:31:02;60.08;35.43;76.61;;
66888;Laerm;53798;51.680;5.976;2022-11-20T08:33:30;63.72;37.94;78.13;;
66888;Laerm;53798;51.680;5.976;2022-11-20T08:36:04;63.62;37.98;80.07;;
66888;Laerm;53798;51.680;5.976;2022-11-20T08:38:32;67.45;37.74;83.71;;
66888;Laerm;53798;51.680;5.976;2022-11-20T08:41:03;55.91;36.39;72.96;;
66888;Laerm;53798;51.680;5.976;2022-11-20T08:43:55;66.55;35.72;82.99;;
66888;Laerm;53798;51.680;5.976;2022-11-20T08:46:25;57.38;35.76;75.02;;
66888;Laerm;53798;51.680;5.976;2022-11-20T08:48:53;62.91;36.76;80.57;;
66888;Laerm;53798;51.680;5.976;2022-11-20T08:51:20;60.32;36.89;75.86;;
66888;Laerm;53798;51.680;5.976;2022-11-20T08:53:48;66.96;35.84;83.29;;
66888;Laerm;53798;51.680;5.976;2022-11-20T08:56:16;66.75;35.47;80.88;;
66888;Laerm;53798;51.680;5.976;2022-11-20T08:58:44;62.43;35.18;79.37;;
66888;Laerm;53798;51.680;5.976;2022-11-20T09:01:31;66.78;36.20;80.92;;
66888;Laerm;53798;51.680;5.976;2022-11-20T09:03:58;65.38;34.74;80.28;;
66888;Laerm;53798;51.680;5.976;2022-11-20T09:06:26;56.25;33.30;73.60;;
66888;Laerm;53798;51.680;5.976;2022-11-20T09:08:54;69.49;36.78;83.18;;
66888;Laerm;53798;51.680;5.976;2022-11-20T09:11:21;66.46;36.27;81.74;;
66888;Laerm;53798;51.680;5.976;2022-11-20T09:13:49;68.91;37.71;84.12;;
66888;Laerm;53798;51.680;5.976;2022-11-20T09:16:16;68.76;39.00;83.54;;
66888;Laerm;53798;51.680;5.976;2022-11-20T09:18:43;56.70;37.88;74.17;;
66888;Laerm;53798;51.680;5.976;2022-11-20T09:21:13;68.59;40.02;80.19;;
66888;Laerm;53798;51.680;5.976;2022-11-20T09:23:41;67.90;37.80;81.91;;
66888;Laerm;53798;51.680;5.976;2022-11-20T09:26:13;69.89;39.66;85.10;;
66888;Laerm;53798;51.680;5.976;2022-11-20T09:28:40;67.97;43.85;82.94;;
66888;Laerm;53798;51.680;5.976;2022-11-20T09:31:20;69.92;41.75;84.25;;
66888;Laerm;53798;51.680;5.976;2022-11-20T09:33:48;68.59;43.68;84.08;;
66888;Laerm;53798;51.680;5.976;2022-11-20T09:36:16;66.11;39.22;80.88;;
66888;Laerm;53798;51.680;5.976;2022-11-20T09:38:46;67.43;37.62;79.07;;
66888;Laerm;53798;51.680;5.976;2022-11-20T09:44:54;67.53;39.15;84.19;;
66888;Laerm;53798;51.680;5.976;2022-11-20T09:48:03;63.88;38.43;78.34;;
66888;Laerm;53798;51.680;5.976;2022-11-20T09:50:47;63.47;37.42;81.34;;
66888;Laerm;53798;51.680;5.976;2022-11-20T09:56:14;68.40;37.20;82.16;;
66888;Laerm;53798;51.680;5.976;2022-11-20T09:58:57;67.03;35.51;81.26;;
66888;Laerm;53798;51.680;5.976;2022-11-20T10:01:32;68.90;38.35;81.72;;
66888;Laerm;53798;51.680;5.976;2022-11-20T10:04:04;67.42;38.94;84.37;;
66888;Laerm;53798;51.680;5.976;2022-11-20T10:06:42;67.62;38.41;80.87;;
66888;Laerm;53798;51.680;5.976;2022-11-20T10:15:22;67.67;39.50;81.13;;
66888;Laerm;53798;51.680;5.976;2022-11-20T10:23:42;63.85;41.54;78.30;;
66888;Laerm;53798;51.680;5.976;2022-11-20T10:26:37;68.89;45.23;81.14;;
66888;Laerm;53798;51.680;5.976;2022-11-20T10:29:15;68.08;41.01;81.82;;
66888;Laerm;53798;51.680;5.976;2022-11-20T10:31:51;68.29;41.54;82.58;;
66888;Laerm;53798;51.680;5.976;2022-11-20T10:34:28;65.96;40.85;80.96;;
66888;Laerm;53798;51.680;5.976;2022-11-20T10:37:08;66.07;37.97;80.81;;
66888;Laerm;53798;51.680;5.976;2022-11-20T10:42:51;62.75;37.07;78.57;;
66888;Laerm;53798;51.680;5.976;2022-11-20T10:48:20;65.16;36.74;79.81;;
66888;Laerm;53798;51.680;5.976;2022-11-20T10:54:16;66.86;37.53;81.13;;
66888;Laerm;53798;51.680;5.976;2022-11-20T10:57:02;66.90;37.50;83.35;;
66888;Laerm;53798;51.680;5.976;2022-11-20T10:59:49;68.25;36.99;82.16;;
66888;Laerm;53798;51.680;5.976;2022-11-20T11:02:29;65.00;35.91;80.64;;
66888;Laerm;53798;51.680;5.976;2022-11-20T11:05:05;64.21;35.29;78.01;;
66888;Laerm;53798;51.680;5.976;2022-11-20T11:07:41;66.82;41.27;77.66;;
66888;Laerm;53798;51.680;5.976;2022-11-20T11:10:36;64.83;38.14;80.42;;
66888;Laerm;53798;51.680;5.976;2022-11-20T11:13:23;68.20;37.61;78.81;;
66888;Laerm;53798;51.680;5.976;2022-11-20T11:15:52;69.80;38.13;80.82;;
66888;Laerm;53798;51.680;5.976;2022-11-20T11:18:37;62.40;35.84;77.71;;
66888;Laerm;53798;51.680;5.976;2022-11-20T11:21:04;65.64;37.12;84.92;;
66888;Laerm;53798;51.680;5.976;2022-11-20T11:23:39;68.18;39.50;80.75;;
66888;Laerm;53798;51.680;5.976;2022-11-20T11:26:19;68.53;43.25;84.13;;
66888;Laerm;53798;51.680;5.976;2022-11-20T11:29:03;68.24;40.51;86.79;;
66888;Laerm;53798;51.680;5.976;2022-11-20T11:31:35;69.29;40.84;82.61;;
66888;Laerm;53798;51.680;5.976;2022-11-20T11:34:15;67.88;39.12;81.52;;
66888;Laerm;53798;51.680;5.976;2022-11-20T11:36:54;65.83;38.46;79.76;;
66888;Laerm;53798;51.680;5.976;2022-11-20T11:39:24;60.97;38.05;74.08;;
66888;Laerm;53798;51.680;5.976;2022-11-20T11:41:52;69.84;37.18;87.53;;
66888;Laerm;53798;51.680;5.976;2022-11-20T11:44:47;68.37;36.63;80.60;;
66888;Laerm;53798;51.680;5.976;2022-11-20T11:50:24;68.75;36.49;84.80;;
66888;Laerm;53798;51.680;5.976;2022-11-20T11:53:14;68.67;38.44;84.78;;
66888;Laerm;53798;51.680;5.976;2022-11-20T11:55:50;71.11;37.47;87.23;;
66888;Laerm;53798;51.680;5.976;2022-11-20T11:58:46;66.91;39.68;81.23;;
66888;Laerm;53798;51.680;5.976;2022-11-20T12:04:40;67.35;41.91;79.02;;
66888;Laerm;53798;51.680;5.976;2022-11-20T12:07:32;70.01;36.70;82.04;;
66888;Laerm;53798;51.680;5.976;2022-11-20T12:10:19;67.27;42.73;80.13;;
66888;Laerm;53798;51.680;5.976;2022-11-20T12:12:54;69.76;38.96;85.44;;
66888;Laerm;53798;51.680;5.976;2022-11-20T12:15:29;68.37;40.26;82.00;;
66888;Laerm;53798;51.680;5.976;2022-11-20T12:17:58;69.45;38.78;82.71;;
66888;Laerm;53798;51.680;5.976;2022-11-20T12:20:34;71.07;47.83;85.36;;
66888;Laerm;53798;51.680;5.976;2022-11-20T12:26:39;69.23;44.29;81.68;;
66888;Laerm;53798;51.680;5.976;2022-11-20T12:41:24;71.36;42.96;82.83;;
66888;Laerm;53798;51.680;5.976;2022-11-20T12:44:59;69.53;43.29;81.02;;
66888;Laerm;53798;51.680;5.976;2022-11-20T12:57:18;68.98;42.69;87.33;;
66888;Laerm;53798;51.680;5.976;2022-11-20T13:08:25;68.10;43.93;79.63;;
66888;Laerm;53798;51.680;5.976;2022-11-20T13:11:30;69.81;40.07;82.97;;
66888;Laerm;53798;51.680;5.976;2022-11-20T13:19:14;70.38;41.20;82.67;;
66888;Laerm;53798;51.680;5.976;2022-11-20T13:21:48;66.32;40.48;78.65;;
66888;Laerm;53798;51.680;5.976;2022-11-20T13:27:18;70.41;41.16;81.87;;
66888;Laerm;53798;51.680;5.976;2022-11-20T13:30:13;67.32;42.00;79.26;;
66888;Laerm;53798;51.680;5.976;2022-11-20T13:36:03;63.98;36.70;78.80;;
66888;Laerm;53798;51.680;5.976;2022-11-20T13:38:50;70.40;37.91;84.08;;
66888;Laerm;53798;51.680;5.976;2022-11-20T13:41:30;67.90;39.18;81.80;;
66888;Laerm;53798;51.680;5.976;2022-11-20T13:44:34;66.65;40.43;80.90;;
66888;Laerm;53798;51.680;5.976;2022-11-20T13:47:25;67.57;41.04;82.93;;
66888;Laerm;53798;51.680;5.976;2022-11-20T13:49:55;66.05;39.40;78.64;;
66888;Laerm;53798;51.680;5.976;2022-11-20T13:52:58;68.03;38.29;83.02;;
66888;Laerm;53798;51.680;5.976;2022-11-20T13:55:48;68.40;38.13;83.23;;
66888;Laerm;53798;51.680;5.976;2022-11-20T13:58:48;67.38;40.90;79.33;;
66888;Laerm;53798;51.680;5.976;2022-11-20T14:01:26;70.01;40.96;82.16;;
66888;Laerm;53798;51.680;5.976;2022-11-20T14:03:55;66.14;38.37;78.87;;
66888;Laerm;53798;51.680;5.976;2022-11-20T14:06:41;69.18;39.54;89.42;;
66888;Laerm;53798;51.680;5.976;2022-11-20T14:09:13;65.33;37.55;79.49;;
66888;Laerm;53798;51.680;5.976;2022-11-20T14:11:50;68.15;37.40;80.81;;
66888;Laerm;53798;51.680;5.976;2022-11-20T14:14:21;67.41;40.24;79.92;;
66888;Laerm;53798;51.680;5.976;2022-11-20T14:16:50;67.12;42.52;82.54;;
66888;Laerm;53798;51.680;5.976;2022-11-20T14:19:25;69.05;44.13;83.41;;
66888;Laerm;53798;51.680;5.976;2022-11-20T14:22:08;69.38;48.85;89.03;;
66888;Laerm;53798;51.680;5.976;2022-11-20T14:24:37;68.51;46.12;83.78;;
66888;Laerm;53798;51.680;5.976;2022-11-20T14:27:16;67.65;39.73;82.67;;
66888;Laerm;53798;51.680;5.976;2022-11-20T14:29:46;69.24;40.30;82.51;;
66888;Laerm;53798;51.680;5.976;2022-11-20T14:32:18;65.99;40.33;81.29;;
66888;Laerm;53798;51.680;5.976;2022-11-20T14:34:49;68.70;39.66;82.39;;
66888;Laerm;53798;51.680;5.976;2022-11-20T14:37:22;68.22;38.19;82.18;;
66888;Laerm;53798;51.680;5.976;2022-11-20T14:39:54;69.30;41.39;81.51;;
66888;Laerm;53798;51.680;5.976;2022-11-20T14:42:27;69.24;40.08;83.54;;
66888;Laerm;53798;51.680;5.976;2022-11-20T14:44:59;69.33;39.53;82.66;;
66888;Laerm;53798;51.680;5.976;2022-11-20T14:47:30;67.66;39.29;80.22;;
66888;Laerm;53798;51.680;5.976;2022-11-20T14:50:00;67.13;39.05;80.77;;
66888;Laerm;53798;51.680;5.976;2022-11-20T14:52:35;70.86;41.90;82.09;;
66888;Laerm;53798;51.680;5.976;2022-11-20T14:55:02;67.88;38.73;85.32;;
66888;Laerm;53798;51.680;5.976;2022-11-20T14:57:32;64.57;40.04;77.75;;
66888;Laerm;53798;51.680;5.976;2022-11-20T15:02:46;67.79;39.14;81.12;;
66888;Laerm;53798;51.680;5.976;2022-11-20T15:05:16;67.88;41.60;84.46;;
66888;Laerm;53798;51.680;5.976;2022-11-20T15:07:48;69.05;43.44;82.20;;
66888;Laerm;53798;51.680;5.976;2022-11-20T15:12:51;66.27;40.57;82.34;;
66888;Laerm;53798;51.680;5.976;2022-11-20T15:15:45;67.39;44.66;78.89;;
66888;Laerm;53798;51.680;5.976;2022-11-20T15:18:16;67.94;44.37;82.77;;
66888;Laerm;53798;51.680;5.976;2022-11-20T15:20:45;68.15;47.14;80.94;;
66888;Laerm;53798;51.680;5.976;2022-11-20T15:23:16;69.19;47.49;81.22;;
66888;Laerm;53798;51.680;5.976;2022-11-20T15:25:48;70.99;47.60;82.51;;
66888;Laerm;53798;51.680;5.976;2022-11-20T15:28:31;69.15;46.94;79.68;;
66888;Laerm;53798;51.680;5.976;2022-11-20T15:31:00;69.96;47.30;82.43;;
66888;Laerm;53798;51.680;5.976;2022-11-20T15:33:31;86.58;51.59;112.90;;
66888;Laerm;53798;51.680;5.976;2022-11-20T15:36:00;70.40;51.71;82.02;;
66888;Laerm;53798;51.680;5.976;2022-11-20T15:38:27;70.07;53.27;81.67;;
66888;Laerm;53798;51.680;5.976;2022-11-20T15:40:54;69.22;53.51;82.50;;